Time;durP1;ratioP1;P1;durP2;ratioP2;P2;SDS_P1;SDS_P2;PMS_P1;PMS_P2;Temp;Humidity;BMP_temperature;BMP_pressure;BME280_temperature;BME280_humidity;BME280_pressure;Samples;Min_cycle;Max_cycle;Signal;HPM_P1;HPM_P2
2020/06/05 00:02:33;;;;;;;2.21;2.01;;;;;;;20.68;48.83;98781.61;;;;-53
2020/06/05 00:05:33;;;;;;;2.21;2.01;;;;;;;20.68;48.85;98787.08;;;;-52
2020/06/05 00:08:33;;;;;;;2.15;2.00;;;;;;;20.68;48.91;98785.73;;;;-53
2020/06/05 00:11:33;;;;;;;2.34;2.11;;;;;;;20.67;48.90;98787.91;;;;-53
2020/06/05 00:14:34;;;;;;;2.19;1.99;;;;;;;20.67;48.87;98791.93;;;;-53
2020/06/05 00:17:33;;;;;;;2.31;2.11;;;;;;;20.67;48.90;98791.83;;;;-53
2020/06/05 00:20:33;;;;;;;2.78;1.99;;;;;;;20.66;48.96;98792.08;;;;-53
2020/06/05 00:23:33;;;;;;;2.55;1.99;;;;;;;20.66;48.88;98793.26;;;;-53
2020/06/05 00:26:33;;;;;;;2.39;2.17;;;;;;;20.66;48.88;98792.66;;;;-53
2020/06/05 00:29:33;;;;;;;2.13;1.96;;;;;;;20.64;48.87;98799.43;;;;-53
2020/06/05 00:35:34;;;;;;;2.34;2.15;;;;;;;20.63;48.90;98800.66;;;;-52
2020/06/05 00:38:45;;;;;;;2.35;2.15;;;;;;;20.62;48.88;98797.39;;;;-53
2020/06/05 00:41:33;;;;;;;2.40;2.20;;;;;;;20.63;48.91;98796.98;;;;-53
2020/06/05 00:44:33;;;;;;;2.23;2.05;;;;;;;20.62;48.89;98808.13;;;;-53
2020/06/05 00:47:33;;;;;;;2.15;1.90;;;;;;;20.61;48.90;98807.27;;;;-53
2020/06/05 00:50:34;;;;;;;2.67;2.10;;;;;;;20.60;48.89;98806.42;;;;-52
2020/06/05 00:53:33;;;;;;;2.02;1.92;;;;;;;20.61;48.84;98806.52;;;;-53
2020/06/05 00:56:33;;;;;;;2.31;2.11;;;;;;;20.60;48.92;98806.02;;;;-53
2020/06/05 00:59:33;;;;;;;2.16;2.00;;;;;;;20.61;48.91;98804.84;;;;-53
2020/06/05 01:02:33;;;;;;;2.20;2.00;;;;;;;20.59;48.87;98800.37;;;;-53
2020/06/05 01:05:33;;;;;;;3.92;1.95;;;;;;;20.59;48.87;98793.41;;;;-53
2020/06/05 01:08:34;;;;;;;2.16;2.01;;;;;;;20.59;48.91;98789.64;;;;-53
2020/06/05 01:11:33;;;;;;;2.26;2.09;;;;;;;20.59;48.88;98790.05;;;;-53
2020/06/05 01:14:35;;;;;;;2.15;1.95;;;;;;;20.58;48.87;98786.10;;;;-53
2020/06/05 01:17:33;;;;;;;2.10;1.93;;;;;;;20.58;48.84;98787.88;;;;-53
2020/06/05 01:20:33;;;;;;;2.11;1.91;;;;;;;20.58;48.86;98793.58;;;;-53
2020/06/05 01:23:33;;;;;;;2.15;1.96;;;;;;;20.58;48.83;98797.68;;;;-53
2020/06/05 01:26:33;;;;;;;2.29;2.00;;;;;;;20.56;48.89;98794.45;;;;-53
2020/06/05 01:29:34;;;;;;;2.18;2.02;;;;;;;20.57;48.84;98795.56;;;;-53
2020/06/05 01:32:33;;;;;;;2.05;1.95;;;;;;;20.58;48.86;98796.24;;;;-53
2020/06/05 01:35:33;;;;;;;2.29;2.10;;;;;;;20.57;48.80;98790.13;;;;-53
2020/06/05 01:38:33;;;;;;;2.06;1.92;;;;;;;20.56;48.87;98788.33;;;;-53
2020/06/05 01:41:33;;;;;;;2.29;2.09;;;;;;;20.56;48.83;98791.35;;;;-53
2020/06/05 01:44:33;;;;;;;2.00;1.90;;;;;;;20.56;48.82;98793.97;;;;-53
2020/06/05 01:47:33;;;;;;;2.15;1.96;;;;;;;20.56;48.80;98790.84;;;;-53
2020/06/05 01:50:33;;;;;;;2.13;2.03;;;;;;;20.55;48.81;98788.92;;;;-53
2020/06/05 01:53:33;;;;;;;2.23;2.04;;;;;;;20.54;48.85;98791.61;;;;-53
2020/06/05 01:57:15;;;;;;;1.99;1.89;;;;;;;20.54;48.84;98792.16;;;;-53
2020/06/05 01:59:33;;;;;;;2.24;1.93;;;;;;;20.54;48.84;98794.80;;;;-53
2020/06/05 02:02:33;;;;;;;2.07;1.90;;;;;;;20.54;48.84;98795.28;;;;-53
2020/06/05 02:05:33;;;;;;;2.03;1.93;;;;;;;20.53;48.81;98797.34;;;;-53
2020/06/05 02:08:33;;;;;;;2.21;2.01;;;;;;;20.53;48.83;98800.70;;;;-53
2020/06/05 02:11:34;;;;;;;2.26;1.90;;;;;;;20.52;48.80;98803.16;;;;-53
2020/06/05 02:14:33;;;;;;;1.90;1.80;;;;;;;20.53;48.79;98801.97;;;;-53
2020/06/05 02:17:33;;;;;;;2.11;1.91;;;;;;;20.52;48.78;98799.97;;;;-53
2020/06/05 02:20:39;;;;;;;2.08;1.89;;;;;;;20.51;48.82;98798.95;;;;-53
2020/06/05 02:23:33;;;;;;;1.82;1.72;;;;;;;20.52;48.82;98794.98;;;;-53
2020/06/05 02:26:33;;;;;;;2.01;1.91;;;;;;;20.50;48.81;98799.94;;;;-53
2020/06/05 02:29:33;;;;;;;1.95;1.85;;;;;;;20.51;48.77;98798.25;;;;-53
2020/06/05 02:32:33;;;;;;;1.99;1.89;;;;;;;20.51;48.76;98798.33;;;;-53
2020/06/05 02:35:33;;;;;;;1.99;1.89;;;;;;;20.49;48.78;98794.73;;;;-53
2020/06/05 02:38:33;;;;;;;2.15;1.90;;;;;;;20.50;48.83;98793.88;;;;-53
2020/06/05 02:41:54;;;;;;;2.03;1.83;;;;;;;20.49;48.81;98797.66;;;;-53
2020/06/05 02:44:41;;;;;;;1.92;1.80;;;;;;;20.49;48.78;98797.15;;;;-53
2020/06/05 02:47:41;;;;;;;1.99;1.89;;;;;;;20.49;48.77;98800.44;;;;-53
2020/06/05 02:51:28;;;;;;;1.93;1.83;;;;;;;20.49;48.78;98806.61;;;;-53
2020/06/05 02:54:35;;;;;;;1.88;1.78;;;;;;;20.48;48.79;98809.52;;;;-53
2020/06/05 02:57:38;;;;;;;2.49;1.92;;;;;;;20.48;48.82;98815.66;;;;-53
2020/06/05 03:03:38;;;;;;;1.86;1.76;;;;;;;20.47;48.76;98819.92;;;;-53
2020/06/05 03:13:40;;;;;;;2.06;1.88;;;;;;;20.46;48.72;98823.09;;;;-53
2020/06/05 03:16:47;;;;;;;1.92;1.82;;;;;;;20.47;48.77;98828.72;;;;-53
2020/06/05 03:19:46;;;;;;;1.87;1.77;;;;;;;20.45;48.75;98828.88;;;;-53
2020/06/05 03:22:41;;;;;;;1.90;1.80;;;;;;;20.45;48.77;98832.48;;;;-53
2020/06/05 03:28:37;;;;;;;1.81;1.71;;;;;;;20.44;48.79;98839.91;;;;-53
2020/06/05 03:34:38;;;;;;;1.93;1.83;;;;;;;20.44;48.78;98849.97;;;;-53
2020/06/05 03:37:34;;;;;;;4.15;1.85;;;;;;;20.44;48.74;98851.58;;;;-53
2020/06/05 03:40:35;;;;;;;1.93;1.83;;;;;;;20.43;48.74;98859.68;;;;-53
2020/06/05 03:49:36;;;;;;;1.71;1.61;;;;;;;20.43;48.77;98868.50;;;;-53
2020/06/05 03:55:36;;;;;;;1.85;1.64;;;;;;;20.43;48.70;98875.20;;;;-53
2020/06/05 03:58:38;;;;;;;1.90;1.80;;;;;;;20.42;48.82;98881.06;;;;-53
2020/06/05 04:04:51;;;;;;;1.80;1.70;;;;;;;20.41;48.73;98884.32;;;;-53
2020/06/05 04:10:33;;;;;;;2.40;1.79;;;;;;;20.41;48.82;98879.54;;;;-53
2020/06/05 04:13:49;;;;;;;1.81;1.71;;;;;;;20.40;48.74;98878.10;;;;-53
2020/06/05 04:24:38;;;;;;;1.93;1.83;;;;;;;20.40;48.71;98890.58;;;;-53
2020/06/05 04:27:36;;;;;;;1.70;1.60;;;;;;;20.40;48.68;98889.84;;;;-53
2020/06/05 04:31:02;;;;;;;1.78;1.68;;;;;;;20.41;48.68;98884.73;;;;-53
2020/06/05 04:33:38;;;;;;;1.80;1.70;;;;;;;20.41;48.68;98886.31;;;;-53
2020/06/05 04:36:39;;;;;;;2.03;1.69;;;;;;;20.39;48.66;98882.78;;;;-53
2020/06/05 04:45:44;;;;;;;2.04;1.84;;;;;;;20.40;48.65;98893.77;;;;-52
2020/06/05 04:48:37;;;;;;;1.91;1.81;;;;;;;20.40;48.65;98894.67;;;;-53
2020/06/05 04:51:38;;;;;;;1.83;1.71;;;;;;;20.40;48.61;98893.77;;;;-53
2020/06/05 04:54:44;;;;;;;1.71;1.61;;;;;;;20.40;48.62;98892.94;;;;-53
2020/06/05 04:57:43;;;;;;;1.74;1.64;;;;;;;20.40;48.63;98897.63;;;;-53
2020/06/05 05:14:34;;;;;;;2.10;1.80;;;;;;;20.39;48.64;98905.33;;;;-53
2020/06/05 05:17:40;;;;;;;1.80;1.70;;;;;;;20.38;48.60;98902.46;;;;-53
2020/06/05 05:20:33;;;;;;;1.75;1.63;;;;;;;20.38;48.59;98901.55;;;;-53
2020/06/05 05:23:33;;;;;;;1.85;1.75;;;;;;;20.38;48.60;98901.72;;;;-53
2020/06/05 05:26:40;;;;;;;1.86;1.76;;;;;;;20.38;48.60;98898.10;;;;-53
2020/06/05 05:30:16;;;;;;;1.76;1.66;;;;;;;20.38;48.60;98903.80;;;;-53
2020/06/05 05:36:12;;;;;;;1.76;1.66;;;;;;;20.38;48.58;98918.98;;;;-53
2020/06/05 05:38:36;;;;;;;1.77;1.67;;;;;;;20.38;48.56;98920.06;;;;-53
2020/06/05 05:41:34;;;;;;;1.81;1.71;;;;;;;20.38;48.52;98919.55;;;;-53
2020/06/05 05:44:37;;;;;;;2.18;1.77;;;;;;;20.38;48.51;98922.17;;;;-53
2020/06/05 05:47:48;;;;;;;1.69;1.59;;;;;;;20.38;48.60;98921.50;;;;-53
2020/06/05 05:50:40;;;;;;;1.93;1.60;;;;;;;20.38;48.51;98923.59;;;;-53
2020/06/05 05:53:34;;;;;;;1.81;1.71;;;;;;;20.37;48.46;98931.53;;;;-53
2020/06/05 05:56:34;;;;;;;1.87;1.77;;;;;;;20.37;48.50;98928.09;;;;-53
2020/06/05 06:00:14;;;;;;;1.91;1.79;;;;;;;20.37;48.47;98934.39;;;;-53
2020/06/05 06:02:33;;;;;;;1.81;1.70;;;;;;;20.38;48.49;98938.83;;;;-53
2020/06/05 06:05:36;;;;;;;2.03;1.82;;;;;;;20.37;48.48;98938.25;;;;-53
2020/06/05 06:09:53;;;;;;;1.73;1.63;;;;;;;20.38;48.48;98927.95;;;;-53
2020/06/05 06:12:39;;;;;;;1.61;1.51;;;;;;;20.37;48.42;98925.50;;;;-53
2020/06/05 06:15:45;;;;;;;1.71;1.61;;;;;;;20.37;48.46;98929.70;;;;-53
2020/06/05 06:18:52;;;;;;;1.85;1.67;;;;;;;20.37;48.44;98926.69;;;;-53
2020/06/05 06:21:35;;;;;;;2.27;1.71;;;;;;;20.37;48.39;98928.76;;;;-53
2020/06/05 06:24:46;;;;;;;1.81;1.70;;;;;;;20.37;48.44;98932.28;;;;-53
2020/06/05 06:27:41;;;;;;;1.90;1.80;;;;;;;20.37;48.46;98937.07;;;;-53
2020/06/05 06:33:49;;;;;;;2.23;1.78;;;;;;;20.37;48.42;98941.67;;;;-53
2020/06/05 06:36:45;;;;;;;1.80;1.70;;;;;;;20.37;48.41;98939.93;;;;-53
2020/06/05 06:39:42;;;;;;;1.71;1.61;;;;;;;20.37;48.38;98940.33;;;;-53
2020/06/05 06:47:47;;;;;;;1.87;1.77;;;;;;;20.36;48.34;98944.09;;;;-53
2020/06/05 06:50:39;;;;;;;1.71;1.61;;;;;;;20.36;48.35;98944.43;;;;-53
2020/06/05 06:53:54;;;;;;;2.15;1.67;;;;;;;20.36;48.39;98946.95;;;;-53
2020/06/05 06:57:21;;;;;;;1.97;1.60;;;;;;;20.36;48.31;98945.00;;;;-53
2020/06/05 06:59:41;;;;;;;1.77;1.67;;;;;;;20.36;48.33;98943.94;;;;-53
2020/06/05 07:05:47;;;;;;;1.83;1.70;;;;;;;20.36;48.29;98938.64;;;;-53
2020/06/05 07:08:38;;;;;;;1.78;1.67;;;;;;;20.36;48.26;98942.16;;;;-53
2020/06/05 07:11:34;;;;;;;1.63;1.53;;;;;;;20.35;48.26;98942.30;;;;-52
2020/06/05 07:14:41;;;;;;;1.79;1.69;;;;;;;20.36;48.26;98946.84;;;;-53
2020/06/05 07:17:55;;;;;;;1.79;1.69;;;;;;;20.35;48.25;98944.98;;;;-53
2020/06/05 07:20:38;;;;;;;1.80;1.70;;;;;;;20.36;48.23;98945.34;;;;-53
2020/06/05 07:23:38;;;;;;;1.96;1.72;;;;;;;20.35;48.22;98948.61;;;;-57
2020/06/05 07:26:36;;;;;;;2.07;1.74;;;;;;;20.39;48.57;98952.11;;;;-51
2020/06/05 07:29:34;;;;;;;2.15;1.69;;;;;;;20.39;48.61;98947.50;;;;-52
2020/06/05 07:33:12;;;;;;;2.11;1.72;;;;;;;20.41;48.66;98943.42;;;;-63
2020/06/05 07:38:49;;;;;;;5.43;1.75;;;;;;;20.42;48.75;98932.20;;;;-52
2020/06/05 07:41:48;;;;;;;4.61;1.71;;;;;;;20.45;48.93;98928.89;;;;-50
2020/06/05 07:44:41;;;;;;;4.39;1.77;;;;;;;20.47;49.00;98920.88;;;;-51
2020/06/05 07:48:22;;;;;;;3.67;2.03;;;;;;;20.47;48.91;98914.06;;;;-52
2020/06/05 07:50:34;;;;;;;2.01;1.70;;;;;;;20.46;48.91;98918.41;;;;-51
2020/06/05 07:57:37;;;;;;;2.09;1.59;;;;;;;20.46;48.80;98925.55;;;;-51
2020/06/05 08:04:20;;;;;;;3.14;1.65;;;;;;;20.47;48.74;98931.61;;;;-51
2020/06/05 08:06:37;;;;;;;3.94;1.72;;;;;;;20.47;48.70;98925.91;;;;-50
2020/06/05 08:09:33;;;;;;;1.85;1.67;;;;;;;20.46;48.70;98923.80;;;;-52
2020/06/05 08:12:34;;;;;;;1.95;1.66;;;;;;;20.46;48.67;98917.17;;;;-50
2020/06/05 08:15:37;;;;;;;2.10;1.68;;;;;;;20.46;48.58;98918.44;;;;-51
2020/06/05 08:21:42;;;;;;;2.37;1.67;;;;;;;20.48;48.58;98919.11;;;;-59
2020/06/05 08:29:34;;;;;;;4.89;1.69;;;;;;;20.52;48.90;98914.00;;;;-57
2020/06/05 08:35:58;;;;;;;7.98;1.96;;;;;;;20.56;49.44;98920.34;;;;-53
2020/06/05 08:38:38;;;;;;;5.26;1.87;;;;;;;20.58;49.18;98912.63;;;;-52
2020/06/05 08:41:42;;;;;;;5.97;1.81;;;;;;;20.60;49.43;98909.58;;;;-58
2020/06/05 08:49:38;;;;;;;2.65;1.76;;;;;;;20.57;49.19;98907.11;;;;-57
2020/06/05 08:52:39;;;;;;;4.27;1.89;;;;;;;20.57;49.12;98906.75;;;;-58
2020/06/05 09:05:51;;;;;;;4.63;1.75;;;;;;;20.56;48.94;98892.81;;;;-55
2020/06/05 09:08:45;;;;;;;3.51;1.69;;;;;;;20.55;48.84;98891.72;;;;-55
2020/06/05 09:24:40;;;;;;;4.63;1.70;;;;;;;20.57;48.76;98874.64;;;;-59
2020/06/05 09:27:41;;;;;;;3.62;1.67;;;;;;;20.58;48.83;98873.14;;;;-52
2020/06/05 09:30:43;;;;;;;2.43;1.64;;;;;;;20.59;48.88;98877.69;;;;-59
2020/06/05 09:33:39;;;;;;;2.86;1.70;;;;;;;20.60;48.90;98889.77;;;;-58
2020/06/05 09:36:42;;;;;;;5.05;1.75;;;;;;;20.61;48.86;98881.98;;;;-54
2020/06/05 09:39:44;;;;;;;3.41;1.71;;;;;;;20.61;48.96;98891.48;;;;-52
2020/06/05 09:42:46;;;;;;;3.02;1.81;;;;;;;20.61;48.92;98891.97;;;;-56
2020/06/05 09:45:40;;;;;;;2.55;1.59;;;;;;;20.63;48.86;98904.41;;;;-54
2020/06/05 09:53:46;;;;;;;3.80;1.58;;;;;;;20.64;48.92;98903.75;;;;-56
2020/06/05 09:56:58;;;;;;;4.59;1.88;;;;;;;20.65;48.90;98904.62;;;;-54
2020/06/05 09:59:38;;;;;;;4.38;1.75;;;;;;;20.66;48.85;98908.55;;;;-57
2020/06/05 10:02:37;;;;;;;1.93;1.61;;;;;;;20.67;48.94;98911.86;;;;-54
2020/06/05 10:05:40;;;;;;;3.24;1.70;;;;;;;20.67;48.97;98915.11;;;;-54
2020/06/05 10:08:54;;;;;;;3.16;1.69;;;;;;;20.68;48.91;98914.79;;;;-56
2020/06/05 10:11:48;;;;;;;3.06;1.77;;;;;;;20.70;48.98;98909.46;;;;-52
2020/06/05 10:19:01;;;;;;;3.48;1.75;;;;;;;20.71;49.03;98900.08;;;;-52
2020/06/05 10:22:17;;;;;;;2.08;1.61;;;;;;;20.72;48.92;98897.47;;;;-56
2020/06/05 10:24:40;;;;;;;1.73;1.61;;;;;;;20.72;48.96;98896.74;;;;-55
2020/06/05 10:27:48;;;;;;;3.99;1.71;;;;;;;20.71;48.96;98895.37;;;;-56
2020/06/05 10:31:09;;;;;;;1.95;1.68;;;;;;;20.72;48.89;98895.23;;;;-55
2020/06/05 10:33:45;;;;;;;1.86;1.59;;;;;;;20.72;48.90;98886.09;;;;-52
2020/06/05 10:36:44;;;;;;;1.98;1.72;;;;;;;20.72;48.94;98879.02;;;;-55
2020/06/05 10:39:33;;;;;;;3.71;1.76;;;;;;;20.73;48.74;98880.73;;;;-53
2020/06/05 10:42:42;;;;;;;2.49;1.60;;;;;;;20.72;48.77;98878.71;;;;-54
2020/06/05 10:45:44;;;;;;;2.96;1.65;;;;;;;20.72;48.83;98884.66;;;;-55
2020/06/05 10:52:53;;;;;;;2.70;1.63;;;;;;;20.71;48.78;98878.88;;;;-53
2020/06/05 10:55:39;;;;;;;2.13;1.67;;;;;;;20.70;48.70;98871.48;;;;-55
2020/06/05 11:11:48;;;;;;;3.14;1.74;;;;;;;20.67;48.59;98855.41;;;;-54
2020/06/05 11:14:58;;;;;;;1.81;1.60;;;;;;;20.66;48.47;98849.17;;;;-54
2020/06/05 11:17:49;;;;;;;1.60;1.50;;;;;;;20.66;48.51;98837.45;;;;-54
2020/06/05 11:20:39;;;;;;;1.91;1.69;;;;;;;20.66;48.51;98835.19;;;;-54
2020/06/05 11:23:53;;;;;;;1.72;1.47;;;;;;;20.65;48.52;98831.99;;;;-54
2020/06/05 11:26:54;;;;;;;1.69;1.57;;;;;;;20.65;48.45;98836.02;;;;-54
2020/06/05 11:29:49;;;;;;;3.39;1.61;;;;;;;20.65;48.50;98836.85;;;;-54
2020/06/05 11:32:54;;;;;;;2.39;1.51;;;;;;;20.64;48.45;98832.48;;;;-53
2020/06/05 11:35:45;;;;;;;1.59;1.49;;;;;;;20.63;48.45;98834.38;;;;-54
2020/06/05 11:38:40;;;;;;;1.86;1.59;;;;;;;20.63;48.45;98835.22;;;;-54
2020/06/05 11:41:35;;;;;;;1.50;1.40;;;;;;;20.62;48.38;98834.80;;;;-54
2020/06/05 11:44:35;;;;;;;1.76;1.50;;;;;;;20.62;48.34;98832.69;;;;-54
2020/06/05 11:51:48;;;;;;;2.39;1.50;;;;;;;20.60;48.34;98834.42;;;;-55
2020/06/05 11:54:44;;;;;;;4.24;1.60;;;;;;;20.62;48.37;98834.37;;;;-57
2020/06/05 12:03:54;;;;;;;2.89;1.60;;;;;;;20.65;48.61;98817.05;;;;-52
2020/06/05 12:09:58;;;;;;;1.71;1.57;;;;;;;20.67;48.73;98807.19;;;;-56
2020/06/05 12:19:52;;;;;;;1.91;1.50;;;;;;;20.68;48.89;98806.09;;;;-50
2020/06/05 12:22:45;;;;;;;2.09;1.49;;;;;;;20.71;48.75;98801.20;;;;-52
2020/06/05 12:25:44;;;;;;;1.83;1.44;;;;;;;20.71;48.81;98797.91;;;;-52
2020/06/05 12:28:39;;;;;;;2.41;1.70;;;;;;;20.72;48.79;98796.48;;;;-51
2020/06/05 12:31:47;;;;;;;2.12;1.67;;;;;;;20.72;48.82;98797.50;;;;-51
2020/06/05 12:34:54;;;;;;;1.84;1.47;;;;;;;20.72;48.84;98796.59;;;;-56
2020/06/05 12:37:48;;;;;;;1.87;1.60;;;;;;;20.73;48.84;98789.39;;;;-51
2020/06/05 12:42:12;;;;;;;1.76;1.55;;;;;;;20.75;48.78;98789.76;;;;-52
2020/06/05 12:47:43;;;;;;;3.77;1.53;;;;;;;20.74;48.73;98788.80;;;;-54
2020/06/05 12:50:45;;;;;;;1.49;1.39;;;;;;;20.76;48.72;98785.58;;;;-53
2020/06/05 13:08:01;;;;;;;1.79;1.63;;;;;;;20.76;48.67;98777.11;;;;-54
2020/06/05 13:15:45;;;;;;;1.53;1.41;;;;;;;20.77;48.65;98773.91;;;;-54
2020/06/05 14:16:12;;;;;;;2.98;1.41;;;;;;;20.68;48.10;98748.67;;;;-57
2020/06/05 14:21:14;;;;;;;2.89;1.50;;;;;;;20.68;48.13;98754.78;;;;-57
2020/06/05 14:25:13;;;;;;;1.63;1.40;;;;;;;20.67;48.08;98756.27;;;;-57
2020/06/05 14:29:05;;;;;;;1.81;1.40;;;;;;;20.66;48.05;98749.39;;;;-57
2020/06/05 14:40:07;;;;;;;1.60;1.50;;;;;;;20.64;47.95;98748.84;;;;-55
2020/06/05 14:55:27;;;;;;;4.61;1.50;;;;;;;20.68;48.26;98778.18;;;;-53
2020/06/05 15:03:37;;;;;;;3.10;1.55;;;;;;;20.71;48.27;98786.52;;;;-52
2020/06/05 15:20:26;;;;;;;1.98;1.46;;;;;;;20.69;48.28;98764.00;;;;-53
2020/06/05 15:26:26;;;;;;;1.89;1.39;;;;;;;20.68;48.31;98763.08;;;;-55
2020/06/05 15:29:41;;;;;;;1.71;1.43;;;;;;;20.69;48.21;98765.95;;;;-55
2020/06/05 15:34:17;;;;;;;1.61;1.30;;;;;;;20.67;48.31;98761.23;;;;-57
2020/06/05 15:36:26;;;;;;;3.61;1.59;;;;;;;20.69;48.25;98756.06;;;;-55
2020/06/05 15:39:26;;;;;;;3.17;1.39;;;;;;;20.71;48.33;98765.70;;;;-54
2020/06/05 15:42:26;;;;;;;3.59;1.47;;;;;;;20.73;48.45;98755.41;;;;-52
2020/06/05 15:45:26;;;;;;;7.49;1.65;;;;;;;20.73;48.38;98752.38;;;;-54
2020/06/05 15:48:26;;;;;;;1.54;1.33;;;;;;;20.73;48.56;98747.20;;;;-57
2020/06/05 15:51:27;;;;;;;2.83;1.52;;;;;;;20.75;48.49;98751.17;;;;-54
2020/06/05 15:54:28;;;;;;;2.39;1.43;;;;;;;20.76;48.46;98750.59;;;;-52
2020/06/05 15:57:27;;;;;;;5.61;1.47;;;;;;;20.76;48.47;98755.55;;;;-51
2020/06/05 16:00:42;;;;;;;3.41;1.50;;;;;;;20.75;48.66;98750.56;;;;-53
2020/06/05 16:03:34;;;;;;;2.72;1.47;;;;;;;20.76;48.71;98756.30;;;;-56
2020/06/05 16:06:34;;;;;;;3.73;1.49;;;;;;;20.77;48.59;98751.42;;;;-53
2020/06/05 16:09:34;;;;;;;4.41;1.40;;;;;;;20.78;48.58;98750.54;;;;-51
2020/06/05 16:12:33;;;;;;;2.56;1.41;;;;;;;20.77;48.70;98743.04;;;;-53
2020/06/05 16:15:33;;;;;;;3.69;1.52;;;;;;;20.78;48.71;98740.12;;;;-56
2020/06/05 16:18:43;;;;;;;3.21;1.48;;;;;;;20.79;48.63;98744.74;;;;-53
2020/06/05 16:21:26;;;;;;;2.61;1.40;;;;;;;20.79;48.67;98745.41;;;;-49
2020/06/05 16:24:26;;;;;;;3.09;1.57;;;;;;;20.79;48.76;98748.95;;;;-58
2020/06/05 16:27:26;;;;;;;2.61;1.29;;;;;;;20.79;48.66;98742.66;;;;-52
2020/06/05 16:30:26;;;;;;;1.97;1.30;;;;;;;20.80;48.71;98743.70;;;;-54
2020/06/05 16:33:26;;;;;;;1.49;1.36;;;;;;;20.80;48.67;98743.78;;;;-56
2020/06/05 16:36:26;;;;;;;2.82;1.41;;;;;;;20.81;48.65;98746.81;;;;-54
2020/06/05 16:39:26;;;;;;;1.23;1.19;;;;;;;20.82;48.70;98745.72;;;;-54
2020/06/05 16:42:26;;;;;;;2.02;1.40;;;;;;;20.80;48.51;98747.06;;;;-54
2020/06/05 16:45:26;;;;;;;1.87;1.40;;;;;;;20.80;48.53;98744.95;;;;-55
2020/06/05 16:48:26;;;;;;;2.69;1.59;;;;;;;20.79;48.41;98745.27;;;;-55
2020/06/05 16:56:36;;;;;;;1.79;1.25;;;;;;;20.78;48.35;98763.96;;;;-54
2020/06/05 16:59:46;;;;;;;2.09;1.34;;;;;;;20.76;48.40;98766.95;;;;-54
2020/06/05 17:02:34;;;;;;;2.01;1.30;;;;;;;20.77;48.42;98765.13;;;;-54
2020/06/05 17:10:44;;;;;;;2.65;1.37;;;;;;;20.79;48.42;98769.57;;;;-55
2020/06/05 17:13:49;;;;;;;2.37;1.30;;;;;;;20.79;48.43;98768.00;;;;-53
2020/06/05 17:16:30;;;;;;;1.97;1.34;;;;;;;20.78;48.47;98771.16;;;;-55
2020/06/05 17:19:26;;;;;;;1.43;1.25;;;;;;;20.79;48.42;98771.92;;;;-54
2020/06/05 17:22:27;;;;;;;3.29;1.33;;;;;;;20.79;48.45;98775.13;;;;-53
2020/06/05 17:25:27;;;;;;;2.54;1.30;;;;;;;20.78;48.42;98780.15;;;;-57
2020/06/05 17:28:27;;;;;;;2.33;1.39;;;;;;;20.78;48.47;98783.91;;;;-57
2020/06/05 17:31:27;;;;;;;1.63;1.33;;;;;;;20.78;48.42;98799.42;;;;-57
2020/06/05 17:34:27;;;;;;;1.57;1.30;;;;;;;20.77;48.40;98812.33;;;;-58
2020/06/05 17:37:26;;;;;;;1.62;1.30;;;;;;;20.77;48.34;98824.00;;;;-57
2020/06/05 17:40:26;;;;;;;3.09;1.33;;;;;;;20.77;48.32;98841.62;;;;-57
2020/06/05 17:43:26;;;;;;;1.56;1.24;;;;;;;20.76;48.28;98851.16;;;;-57
2020/06/05 17:46:26;;;;;;;3.33;1.20;;;;;;;20.76;48.36;98858.28;;;;-58
2020/06/05 17:49:26;;;;;;;1.63;1.20;;;;;;;20.75;48.27;98870.20;;;;-57
2020/06/05 17:52:27;;;;;;;1.83;1.20;;;;;;;20.74;48.26;98867.84;;;;-58
2020/06/05 17:55:26;;;;;;;1.45;1.27;;;;;;;20.74;48.24;98862.70;;;;-59
2020/06/05 17:58:26;;;;;;;1.30;1.20;;;;;;;20.74;48.25;98885.02;;;;-58
2020/06/05 18:01:27;;;;;;;2.01;1.42;;;;;;;20.74;48.23;98892.07;;;;-59
2020/06/05 18:04:27;;;;;;;1.77;1.21;;;;;;;20.73;48.26;98900.20;;;;-59
2020/06/05 18:07:27;;;;;;;1.92;1.16;;;;;;;20.72;48.23;98903.37;;;;-59
2020/06/05 18:10:27;;;;;;;2.30;1.29;;;;;;;20.71;48.21;98904.27;;;;-59
2020/06/05 18:13:27;;;;;;;1.37;1.26;;;;;;;20.71;48.18;98914.26;;;;-57
2020/06/05 18:16:26;;;;;;;1.33;1.23;;;;;;;20.70;48.22;98917.94;;;;-58
2020/06/05 18:19:26;;;;;;;2.15;1.23;;;;;;;20.69;48.23;98918.76;;;;-58
2020/06/05 18:22:27;;;;;;;1.83;1.23;;;;;;;20.68;48.21;98916.73;;;;-58
2020/06/05 18:25:27;;;;;;;1.40;1.30;;;;;;;20.68;48.22;98917.91;;;;-57
2020/06/05 18:28:27;;;;;;;1.31;1.21;;;;;;;20.67;48.25;98928.36;;;;-57
2020/06/05 18:31:27;;;;;;;1.41;1.27;;;;;;;20.67;48.23;98926.52;;;;-59
2020/06/05 18:34:26;;;;;;;1.67;1.25;;;;;;;20.67;48.21;98921.16;;;;-57
2020/06/05 18:37:26;;;;;;;1.22;1.17;;;;;;;20.67;48.21;98926.52;;;;-56
2020/06/05 18:40:26;;;;;;;1.39;1.28;;;;;;;20.66;48.15;98929.62;;;;-57
2020/06/05 18:43:27;;;;;;;1.31;1.21;;;;;;;20.66;48.17;98926.84;;;;-56
2020/06/05 18:46:31;;;;;;;1.49;1.21;;;;;;;20.65;48.24;98927.50;;;;-57
2020/06/05 18:49:29;;;;;;;1.36;1.26;;;;;;;20.65;48.16;98931.19;;;;-57
2020/06/05 18:52:27;;;;;;;1.37;1.27;;;;;;;20.63;48.16;98942.31;;;;-58
2020/06/05 18:55:36;;;;;;;1.35;1.25;;;;;;;20.64;48.16;98940.16;;;;-58
2020/06/05 18:58:38;;;;;;;1.51;1.24;;;;;;;20.63;48.17;98944.50;;;;-59
2020/06/05 19:01:43;;;;;;;1.29;1.19;;;;;;;20.63;48.18;98957.59;;;;-58
2020/06/05 19:04:33;;;;;;;1.25;1.20;;;;;;;20.63;48.16;98964.30;;;;-58
2020/06/05 19:18:30;;;;;;;1.71;1.17;;;;;;;20.61;48.18;98966.20;;;;-56
2020/06/05 19:21:55;;;;;;;4.07;1.67;;;;;;;20.62;48.21;98970.66;;;;-54
2020/06/05 19:24:32;;;;;;;2.02;1.19;;;;;;;20.63;48.27;98967.72;;;;-56
2020/06/05 19:27:43;;;;;;;4.53;1.37;;;;;;;20.66;48.34;98982.70;;;;-54
2020/06/05 19:30:46;;;;;;;1.63;1.29;;;;;;;20.67;48.53;98988.09;;;;-54
2020/06/05 19:33:44;;;;;;;1.97;1.18;;;;;;;20.68;48.50;98984.67;;;;-54
2020/06/05 19:36:41;;;;;;;1.62;1.16;;;;;;;20.69;48.48;99000.13;;;;-57
2020/06/05 19:40:31;;;;;;;1.45;1.20;;;;;;;20.70;48.57;98995.52;;;;-53
2020/06/05 19:44:05;;;;;;;2.05;1.21;;;;;;;20.70;48.61;99014.23;;;;-52
2020/06/05 19:46:36;;;;;;;1.63;1.29;;;;;;;20.71;48.65;99016.84;;;;-56
2020/06/05 19:49:40;;;;;;;2.57;1.32;;;;;;;20.71;48.70;99038.73;;;;-53
2020/06/05 19:52:35;;;;;;;1.45;1.26;;;;;;;20.73;48.60;99050.59;;;;-56
2020/06/05 20:00:35;;;;;;;1.76;1.20;;;;;;;20.73;48.66;99052.09;;;;-53
2020/06/05 20:03:35;;;;;;;1.17;1.17;;;;;;;20.74;48.70;99053.12;;;;-51
2020/06/05 20:06:41;;;;;;;1.43;1.22;;;;;;;20.74;48.76;99066.20;;;;-55
2020/06/05 20:12:52;;;;;;;1.37;1.19;;;;;;;20.75;48.70;99075.18;;;;-54
2020/06/05 20:15:33;;;;;;;1.28;1.18;;;;;;;20.76;48.73;99076.53;;;;-50
2020/06/05 20:18:34;;;;;;;1.41;1.20;;;;;;;20.76;48.71;99084.59;;;;-49
2020/06/05 20:24:31;;;;;;;2.49;1.25;;;;;;;20.77;48.72;99085.45;;;;-53
2020/06/05 20:27:34;;;;;;;2.69;1.41;;;;;;;20.78;48.60;99087.74;;;;-55
2020/06/05 20:30:33;;;;;;;1.19;1.09;;;;;;;20.79;48.63;99083.74;;;;-55
2020/06/05 20:36:47;;;;;;;1.47;1.20;;;;;;;20.78;48.72;99098.89;;;;-52
2020/06/05 20:46:34;;;;;;;1.89;1.21;;;;;;;20.80;48.67;99092.62;;;;-54
2020/06/05 20:52:38;;;;;;;2.39;1.27;;;;;;;20.78;48.56;99107.70;;;;-52
2020/06/05 20:55:55;;;;;;;1.65;1.23;;;;;;;20.77;48.71;99115.08;;;;-52
2020/06/05 20:58:31;;;;;;;2.07;1.30;;;;;;;20.76;48.72;99106.17;;;;-52
2020/06/05 21:01:36;;;;;;;2.53;1.30;;;;;;;20.74;48.68;99096.23;;;;-52
2020/06/05 21:06:40;;;;;;;1.39;1.20;;;;;;;20.73;48.67;99110.98;;;;-52
2020/06/05 21:12:40;;;;;;;1.39;1.22;;;;;;;20.69;48.62;99109.99;;;;-52
2020/06/05 21:17:58;;;;;;;1.41;1.29;;;;;;;20.68;48.57;99104.95;;;;-52
2020/06/05 21:27:10;;;;;;;1.51;1.29;;;;;;;20.65;48.52;99110.33;;;;-51
2020/06/05 21:30:17;;;;;;;1.46;1.30;;;;;;;20.63;48.55;99122.97;;;;-52
2020/06/05 21:33:02;;;;;;;1.89;1.35;;;;;;;20.62;48.54;99126.41;;;;-52
2020/06/05 21:41:08;;;;;;;1.19;1.19;;;;;;;20.60;48.51;99125.77;;;;-52
2020/06/05 21:44:59;;;;;;;1.39;1.25;;;;;;;20.59;48.48;99128.17;;;;-52
2020/06/05 21:48:59;;;;;;;1.41;1.29;;;;;;;20.58;48.49;99133.71;;;;-52
2020/06/05 21:56:58;;;;;;;1.19;1.15;;;;;;;20.56;48.50;99148.07;;;;-54
2020/06/05 22:00:11;;;;;;;1.41;1.30;;;;;;;20.55;48.46;99145.47;;;;-54
2020/06/05 22:04:59;;;;;;;1.71;1.20;;;;;;;20.54;48.42;99142.45;;;;-54
2020/06/05 22:09:04;;;;;;;1.12;1.12;;;;;;;20.54;48.43;99143.17;;;;-54
2020/06/05 22:27:30;;;;;;;1.36;1.26;;;;;;;20.50;48.43;99145.20;;;;-54
2020/06/05 22:37:08;;;;;;;1.29;1.20;;;;;;;20.49;48.42;99148.44;;;;-54
2020/06/05 22:43:06;;;;;;;1.40;1.30;;;;;;;20.47;48.40;99147.43;;;;-54
2020/06/05 22:46:59;;;;;;;1.53;1.43;;;;;;;20.46;48.42;99155.02;;;;-54
2020/06/05 22:49:53;;;;;;;1.40;1.30;;;;;;;20.45;48.43;99146.71;;;;-53
2020/06/05 22:55:46;;;;;;;1.40;1.30;;;;;;;20.44;48.40;99152.39;;;;-54
2020/06/05 22:59:57;;;;;;;1.35;1.25;;;;;;;20.43;48.41;99142.48;;;;-54
2020/06/05 23:04:11;;;;;;;1.40;1.30;;;;;;;20.43;48.47;99145.06;;;;-53
2020/06/05 23:09:52;;;;;;;1.41;1.31;;;;;;;20.42;48.40;99146.89;;;;-54
2020/06/05 23:28:42;;;;;;;1.50;1.40;;;;;;;20.39;48.46;99151.73;;;;-52
2020/06/05 23:31:42;;;;;;;1.40;1.30;;;;;;;20.37;48.47;99143.03;;;;-52
2020/06/05 23:35:43;;;;;;;1.77;1.43;;;;;;;20.37;48.47;99132.97;;;;-52
2020/06/05 23:38:38;;;;;;;1.50;1.40;;;;;;;20.36;48.46;99136.24;;;;-52
2020/06/05 23:49:50;;;;;;;1.52;1.40;;;;;;;20.35;48.47;99139.06;;;;-52
2020/06/05 23:53:39;;;;;;;1.50;1.40;;;;;;;20.34;48.48;99126.71;;;;-51
2020/06/05 23:57:56;;;;;;;1.77;1.40;;;;;;;20.33;48.44;99130.14;;;;-52
